Orion Explorer — LNDT — position and weather

sailwx.info

Track history (hours):
 
Tides and Currents Weather Stations Pressure Air Temp Water Temp Dewpoint Dewpoint Depression Visibility Wind Speed Wind Dir Waves Ship Positions

Orion Explorer

Last reported at 2015-Aug-23 08:11 UTC. Time now 2015-Aug-31 08:55 UTC.
Position N 69°34' E 018°47'.
Warning: this ship's position is 8 days out of date.

Length 59 m; draft 4.5 m.

Type: Cargo ship. MMSI: 259496000.

Date/timePositionNaut miles runAvg speedWind from/ knotsBaromVisibWave heightAir tempDewpointWater temp
2015-Aug-23 08:11N 69°34' E 018°47'6 9.8
2015-Aug-23 07:33N 69°39' E 018°58'  
2015-Aug-21 00:22N 69°45' E 019°06'6 3.2
2015-Aug-20 22:33N 69°39' E 018°59'  
2015-Aug-16 21:33N 69°38' E 018°57'1 0.7
2015-Aug-16 20:33N 69°39' E 018°57'0 0.0
2015-Aug-16 19:33N 69°39' E 018°57'0 0.0
2015-Aug-16 18:33N 69°39' E 018°57'0 0.0
2015-Aug-16 17:33N 69°39' E 018°57'0 0.0
2015-Aug-16 16:33N 69°39' E 018°57'0 0.0
2015-Aug-16 15:33N 69°39' E 018°58'0 0.0
2015-Aug-16 14:33N 69°39' E 018°57'0 0.0
2015-Aug-16 13:33N 69°39' E 018°57'0 0.0
2015-Aug-16 12:33N 69°39' E 018°57'0 0.0
2015-Aug-16 11:33N 69°39' E 018°57'0 0.0
2015-Aug-16 10:33N 69°39' E 018°57'2 2.0
2015-Aug-16 09:33N 69°40' E 019°01'2 1.4
2015-Aug-16 08:09N 69°42' E 019°04'  
2015-Aug-13 22:33N 69°40' E 018°60'  
Track history (hours):
 
Tides and Currents Weather Stations Pressure Air Temp Water Temp Dewpoint Dewpoint Depression Visibility Wind Speed Wind Dir Waves Ship Positions

Orion Explorer

Last reported at 2015-Aug-23 08:11 UTC. Time now 2015-Aug-31 08:55 UTC.
Position N 69°34' E 018°47'.
Warning: this ship's position is 8 days out of date.

Length 59 m; draft 4.5 m.

Type: Cargo ship. MMSI: 259496000.

Date/timePositionNaut miles runAvg speedWind from/ knotsBaromVisibWave heightAir tempDewpointWater temp
2015-Aug-23 08:11N 69°34' E 018°47'6 9.8
2015-Aug-23 07:33N 69°39' E 018°58'  
2015-Aug-21 00:22N 69°45' E 019°06'6 3.2
2015-Aug-20 22:33N 69°39' E 018°59'  
2015-Aug-16 21:33N 69°38' E 018°57'1 0.7
2015-Aug-16 20:33N 69°39' E 018°57'0 0.0
2015-Aug-16 19:33N 69°39' E 018°57'0 0.0
2015-Aug-16 18:33N 69°39' E 018°57'0 0.0
2015-Aug-16 17:33N 69°39' E 018°57'0 0.0
2015-Aug-16 16:33N 69°39' E 018°57'0 0.0
2015-Aug-16 15:33N 69°39' E 018°58'0 0.0
2015-Aug-16 14:33N 69°39' E 018°57'0 0.0
2015-Aug-16 13:33N 69°39' E 018°57'0 0.0
2015-Aug-16 12:33N 69°39' E 018°57'0 0.0
2015-Aug-16 11:33N 69°39' E 018°57'0 0.0
2015-Aug-16 10:33N 69°39' E 018°57'2 2.0
2015-Aug-16 09:33N 69°40' E 019°01'2 1.4
2015-Aug-16 08:09N 69°42' E 019°04'  
2015-Aug-13 22:33N 69°40' E 018°60'  

Dump ship's entire track history